Time;durP1;ratioP1;P1;durP2;ratioP2;P2;SDS_P1;SDS_P2;PMS_P1;PMS_P2;Temp;Humidity;BMP_temperature;BMP_pressure;BME280_temperature;BME280_humidity;BME280_pressure;Samples;Min_cycle;Max_cycle;Signal;HPM_P1;HPM_P2
2021/07/11 00:00:22;;;;;;;21.23;11.68;;;;;;;21.62;47.63;99371.28;5027555;28;20045;-74
2021/07/11 00:02:48;;;;;;;22.02;11.75;;;;;;;21.67;47.43;99370.06;5032392;28;20036;-72
2021/07/11 00:05:16;;;;;;;14.73;9.30;;;;;;;21.68;47.28;99363.94;5014677;28;20124;-73
2021/07/11 00:07:41;;;;;;;17.05;8.35;;;;;;;21.81;46.67;99372.84;5030082;28;20038;-73
2021/07/11 00:10:09;;;;;;;14.93;8.15;;;;;;;22.13;45.57;99368.97;5032312;28;20298;-70
2021/07/11 00:12:36;;;;;;;11.77;6.95;;;;;;;21.88;46.02;99369.94;5014629;28;20029;-73
2021/07/11 00:15:05;;;;;;;8.63;6.60;;;;;;;21.79;46.54;99374.47;5032111;28;20499;-74
2021/07/11 00:17:31;;;;;;;10.85;6.30;;;;;;;21.60;47.38;99385.13;5010231;28;20044;-70
2021/07/11 00:19:56;;;;;;;12.52;6.25;;;;;;;21.72;45.91;99379.00;5010905;28;20026;-70
2021/07/11 00:22:22;;;;;;;10.88;6.20;;;;;;;21.38;46.83;99373.81;5014367;28;20565;-69
2021/07/11 00:24:48;;;;;;;6.93;5.72;;;;;;;21.09;47.38;99379.56;5032622;28;20021;-70
2021/07/11 00:27:13;;;;;;;6.30;5.70;;;;;;;21.27;46.88;99381.56;5029907;28;20498;-71
2021/07/11 00:29:39;;;;;;;17.27;6.38;;;;;;;21.55;46.11;99372.13;5032157;28;20030;-71
2021/07/11 00:32:06;;;;;;;8.00;6.35;;;;;;;21.31;46.47;99377.50;5032239;28;20396;-71
2021/07/11 00:34:31;;;;;;;11.02;6.43;;;;;;;21.19;46.32;99380.78;5031990;28;20217;-70
2021/07/11 00:36:56;;;;;;;12.82;6.25;;;;;;;21.14;46.93;99376.31;5027793;28;20091;-70
2021/07/11 00:39:22;;;;;;;7.63;6.57;;;;;;;20.90;47.69;99381.63;5031337;28;20018;-73
2021/07/11 00:41:47;;;;;;;8.73;6.90;;;;;;;20.80;47.93;99379.59;5031777;28;20041;-74
2021/07/11 00:44:13;;;;;;;8.10;6.65;;;;;;;21.03;47.19;99379.16;5029240;28;20474;-73
2021/07/11 00:46:38;;;;;;;10.25;6.82;;;;;;;20.94;47.53;99367.44;5013814;28;20079;-73
2021/07/11 00:49:06;;;;;;;8.73;6.30;;;;;;;20.98;47.49;99371.06;5031678;28;20033;-72
2021/07/11 00:51:33;;;;;;;9.75;6.75;;;;;;;20.92;47.55;99375.53;5019051;28;20447;-73
2021/07/11 00:53:58;;;;;;;10.07;6.20;;;;;;;20.77;48.08;99374.72;5024524;28;20112;-73
2021/07/11 00:56:24;;;;;;;7.00;5.63;;;;;;;20.72;48.16;99378.78;5029121;28;20160;-70
2021/07/11 00:58:50;;;;;;;9.57;6.20;;;;;;;20.77;48.04;99377.56;5013852;28;20029;-73
2021/07/11 01:01:24;;;;;;;6.95;6.07;;;;;;;20.70;48.44;99375.53;5031496;28;20033;-70
2021/07/11 01:03:54;;;;;;;11.60;6.55;;;;;;;20.83;47.73;99373.13;5026544;28;20029;-70
2021/07/11 01:06:22;;;;;;;11.43;5.60;;;;;;;20.54;48.56;99373.09;5013435;28;20041;-73
2021/07/11 01:09:05;;;;;;;10.35;5.85;;;;;;;20.37;49.20;99363.38;5031192;28;20022;-70
2021/07/11 01:11:38;;;;;;;8.55;5.43;;;;;;;20.24;49.72;99364.97;5029434;28;20033;-70
2021/07/11 01:14:05;;;;;;;8.38;5.68;;;;;;;20.31;49.46;99371.47;5022683;28;20033;-70
2021/07/11 01:16:33;;;;;;;8.90;6.25;;;;;;;20.41;49.25;99369.84;5031068;28;20045;-70
2021/07/11 01:19:10;;;;;;;10.27;7.03;;;;;;;20.15;49.98;99369.00;5031146;28;20408;-73
2021/07/11 01:21:44;;;;;;;11.07;7.55;;;;;;;20.33;49.59;99369.03;5024842;28;20034;-73
2021/07/11 01:24:46;;;;;;;8.45;6.88;;;;;;;20.20;49.96;99365.75;5013185;28;20518;-73
2021/07/11 01:27:12;;;;;;;14.13;7.50;;;;;;;20.37;49.75;99365.38;5006506;28;20457;-73
2021/07/11 01:29:38;;;;;;;9.88;7.53;;;;;;;19.87;51.10;99362.03;5028367;28;20029;-70
2021/07/11 01:32:04;;;;;;;10.70;7.43;;;;;;;20.03;50.64;99364.53;5029632;28;20095;-70
2021/07/11 01:34:30;;;;;;;15.00;8.25;;;;;;;20.05;50.58;99367.78;5013031;28;20022;-71
2021/07/11 01:36:56;;;;;;;14.75;8.23;;;;;;;19.86;51.11;99368.09;5030968;28;20029;-70
2021/07/11 01:39:22;;;;;;;14.43;8.18;;;;;;;19.75;51.48;99368.88;5008648;28;20049;-73
2021/07/11 01:41:48;;;;;;;14.50;7.97;;;;;;;19.87;51.21;99369.72;5023501;28;20033;-70
2021/07/11 01:44:14;;;;;;;13.52;8.45;;;;;;;20.09;50.53;99370.63;5012821;28;20140;-71
2021/07/11 01:46:41;;;;;;;17.98;7.55;;;;;;;20.02;50.70;99371.41;5013043;28;20033;-73
2021/07/11 01:49:07;;;;;;;14.80;7.45;;;;;;;20.10;50.54;99371.44;5025582;28;20029;-73
2021/07/11 01:51:33;;;;;;;22.20;7.13;;;;;;;20.13;50.55;99364.94;5029924;28;20099;-73
2021/07/11 01:53:59;;;;;;;10.15;7.50;;;;;;;20.20;51.06;99362.13;5012612;28;20032;-71
2021/07/11 01:56:25;;;;;;;10.35;6.78;;;;;;;20.26;50.77;99359.69;5012909;28;20176;-70
2021/07/11 01:58:50;;;;;;;10.63;7.18;;;;;;;20.22;50.82;99356.84;5026344;28;20086;-72
2021/07/11 02:01:18;;;;;;;7.55;6.15;;;;;;;20.22;51.01;99362.53;5030474;28;20036;-73
2021/07/11 02:03:43;;;;;;;7.22;6.55;;;;;;;20.14;50.96;99355.22;5012569;28;20568;-71
2021/07/11 02:06:11;;;;;;;7.00;6.30;;;;;;;20.15;50.70;99359.66;5011342;28;20037;-70
2021/07/11 02:08:37;;;;;;;9.20;6.60;;;;;;;20.29;50.42;99362.56;5029544;28;20524;-73
2021/07/11 02:11:04;;;;;;;11.80;6.22;;;;;;;20.15;50.47;99368.19;5030305;28;20038;-72
2021/07/11 02:13:47;;;;;;;10.02;5.20;;;;;;;20.13;50.24;99364.94;5030080;28;20388;-70
2021/07/11 02:16:29;;;;;;;13.05;6.05;;;;;;;20.05;50.13;99355.59;5025703;28;20470;-70
2021/07/11 02:19:00;;;;;;;7.70;5.85;;;;;;;20.19;49.90;99364.13;5030253;28;20025;-73
2021/07/11 02:21:27;;;;;;;8.45;5.60;;;;;;;20.39;49.11;99354.41;5030406;28;20048;-73
2021/07/11 02:23:53;;;;;;;13.23;6.38;;;;;;;20.46;48.91;99360.13;5029404;28;20403;-70
2021/07/11 02:26:21;;;;;;;10.50;6.18;;;;;;;20.59;48.67;99363.38;5026083;28;20061;-73
2021/07/11 02:28:49;;;;;;;21.85;6.57;;;;;;;20.40;48.97;99358.91;5028812;28;20017;-73
2021/07/11 02:31:15;;;;;;;15.60;6.55;;;;;;;20.29;49.45;99361.72;5030266;28;20033;-70
2021/07/11 02:33:43;;;;;;;8.60;6.00;;;;;;;20.20;49.31;99362.13;5027436;28;20494;-70
2021/07/11 02:36:17;;;;;;;6.43;5.68;;;;;;;20.21;49.37;99372.28;5030122;28;20403;-71
2021/07/11 02:39:07;;;;;;;9.70;6.45;;;;;;;19.92;50.24;99377.88;5029855;28;20044;-70
2021/07/11 02:41:34;;;;;;;13.38;6.45;;;;;;;19.99;50.34;99374.25;5024250;28;20042;-73
2021/07/11 02:44:02;;;;;;;11.85;7.05;;;;;;;20.18;49.55;99371.03;5020297;28;20052;-73
2021/07/11 02:46:34;;;;;;;16.15;6.80;;;;;;;19.86;50.22;99382.28;5028725;28;20418;-73
2021/07/11 02:49:01;;;;;;;13.40;7.00;;;;;;;19.59;50.93;99377.72;5012153;28;20557;-73
2021/07/11 02:51:29;;;;;;;12.35;6.95;;;;;;;19.44;51.38;99385.38;5027346;28;20030;-70
2021/07/11 02:53:57;;;;;;;15.48;7.18;;;;;;;19.34;51.79;99380.47;5027951;28;20033;-70
2021/07/11 02:56:25;;;;;;;12.00;7.22;;;;;;;19.49;51.41;99385.00;5008195;28;20124;-70
2021/07/11 02:58:56;;;;;;;10.52;6.50;;;;;;;19.28;51.74;99382.06;5029926;28;20105;-70
2021/07/11 03:01:25;;;;;;;;;;;;;;;19.22;52.30;99378.78;5011836;28;20033;-72
2021/07/11 03:03:56;;;;;;;11.87;7.40;;;;;;;19.35;51.81;99390.59;5032191;28;19920;-73
2021/07/11 03:06:21;;;;;;;;;;;;;;;19.08;52.44;99380.31;5032116;28;21053;-73
2021/07/11 03:08:46;;;;;;;15.05;7.50;;;;;;;19.13;52.81;99384.81;5013562;28;19924;-70
2021/07/11 03:11:12;;;;;;;10.98;7.50;;;;;;;19.05;53.05;99383.97;4997783;28;20038;-70
2021/07/11 03:13:40;;;;;;;14.07;7.35;;;;;;;19.15;52.83;99388.06;5018294;28;20495;-70
2021/07/11 03:16:07;;;;;;;16.58;6.75;;;;;;;19.15;52.50;99385.22;4997922;28;20040;-70
2021/07/11 03:18:35;;;;;;;9.43;6.05;;;;;;;19.16;52.44;99395.34;5004098;28;20414;-73
2021/07/11 03:21:03;;;;;;;14.35;7.13;;;;;;;19.04;52.99;99390.00;5033075;28;20034;-73
2021/07/11 03:23:31;;;;;;;15.43;7.10;;;;;;;19.06;52.95;99393.25;5032972;28;20030;-72
2021/07/11 03:25:59;;;;;;;8.30;6.55;;;;;;;19.15;52.80;99393.72;5033074;28;20087;-70
2021/07/11 03:28:29;;;;;;;11.15;7.00;;;;;;;19.25;52.49;99394.19;5027574;28;20054;-73
2021/07/11 03:30:54;;;;;;;10.43;6.90;;;;;;;19.58;51.89;99400.84;5033180;28;20493;-71
2021/07/11 03:33:22;;;;;;;16.08;8.23;;;;;;;19.72;51.50;99402.91;5033130;28;20053;-74
2021/07/11 03:35:53;;;;;;;14.70;6.47;;;;;;;19.70;51.47;99400.50;5033011;28;20049;-71
2021/07/11 03:38:26;;;;;;;7.65;6.60;;;;;;;19.63;51.57;99398.44;5030109;28;20026;-70
2021/07/11 03:40:54;;;;;;;11.35;6.82;;;;;;;19.66;51.84;99405.31;5015222;28;20422;-74
2021/07/11 03:43:24;;;;;;;11.45;6.85;;;;;;;19.68;51.51;99402.09;5030715;28;20142;-75
2021/07/11 03:45:54;;;;;;;11.23;7.25;;;;;;;19.66;51.44;99405.31;4997238;28;20406;-77
2021/07/11 03:48:28;;;;;;;18.60;7.25;;;;;;;19.33;52.49;99413.69;5013711;28;20057;-75
2021/07/11 03:51:02;;;;;;;8.07;6.28;;;;;;;19.32;52.81;99411.25;5030472;28;20057;-77
2021/07/11 03:53:32;;;;;;;9.20;7.45;;;;;;;19.41;52.20;99417.34;5013119;28;20479;-70
2021/07/11 03:55:59;;;;;;;11.10;7.53;;;;;;;19.19;53.14;99410.75;5028854;28;20040;-70
2021/07/11 03:58:29;;;;;;;7.43;6.63;;;;;;;19.45;52.75;99418.22;5030766;28;20033;-71
2021/07/11 04:00:56;;;;;;;8.07;6.72;;;;;;;19.71;52.14;99413.47;5031009;28;20284;-75
2021/07/11 04:03:26;;;;;;;7.53;6.38;;;;;;;19.55;52.92;99407.28;5014746;28;20423;-75
2021/07/11 04:05:53;;;;;;;12.98;7.22;;;;;;;19.57;53.11;99413.41;5029473;28;20037;-70
2021/07/11 04:08:20;;;;;;;6.65;5.82;;;;;;;19.54;53.74;99414.19;5030582;28;20017;-71
2021/07/11 04:10:47;;;;;;;11.57;6.97;;;;;;;19.55;54.11;99413.78;5032493;28;20041;-70
2021/07/11 04:13:14;;;;;;;12.00;7.22;;;;;;;19.59;54.56;99400.44;5030475;28;20038;-76
2021/07/11 04:15:41;;;;;;;8.57;6.97;;;;;;;19.51;54.63;99407.31;5010466;28;20032;-70
2021/07/11 04:18:11;;;;;;;11.68;7.47;;;;;;;19.68;54.71;99414.28;5032091;28;20037;-75
2021/07/11 04:20:38;;;;;;;11.77;7.15;;;;;;;19.79;54.60;99419.97;5014310;28;20045;-70
2021/07/11 04:23:05;;;;;;;11.05;6.75;;;;;;;19.67;55.02;99412.66;5027661;28;20052;-75
2021/07/11 04:25:33;;;;;;;11.38;8.32;;;;;;;19.66;55.33;99415.88;5009075;28;20029;-75
2021/07/11 04:27:59;;;;;;;19.02;8.05;;;;;;;19.78;55.32;99407.81;5019343;28;20025;-73
2021/07/11 04:30:25;;;;;;;19.23;7.38;;;;;;;19.76;55.07;99423.63;5031945;28;20100;-71
2021/07/11 04:32:51;;;;;;;18.38;11.20;;;;;;;19.91;54.86;99421.66;5025193;28;20105;-70
2021/07/11 04:35:16;;;;;;;19.98;9.38;;;;;;;19.93;54.26;99416.41;5031792;28;20585;-73
2021/07/11 04:37:42;;;;;;;11.30;7.25;;;;;;;20.10;53.86;99426.19;5031897;28;20068;-71
2021/07/11 04:40:08;;;;;;;13.93;8.15;;;;;;;20.15;54.10;99424.97;5031991;28;20029;-70
2021/07/11 04:42:33;;;;;;;22.40;9.15;;;;;;;20.29;53.93;99424.19;5027059;28;20051;-70
2021/07/11 04:45:02;;;;;;;14.23;7.88;;;;;;;20.31;53.72;99425.44;5013956;28;20026;-72
2021/07/11 04:47:27;;;;;;;15.63;7.75;;;;;;;20.29;54.23;99425.03;5031510;28;20034;-70
2021/07/11 04:49:53;;;;;;;11.68;8.07;;;;;;;20.41;53.74;99428.69;5029738;28;20028;-72
2021/07/11 04:52:18;;;;;;;16.15;7.80;;;;;;;20.37;53.61;99423.00;5004821;28;20068;-70
2021/07/11 04:54:44;;;;;;;16.40;8.43;;;;;;;20.44;54.18;99425.03;5031414;28;20025;-70
2021/07/11 04:57:09;;;;;;;21.20;8.35;;;;;;;20.57;53.46;99420.59;5031298;28;20498;-70
2021/07/11 04:59:35;;;;;;;10.00;8.10;;;;;;;20.61;53.05;99417.75;5011818;28;20565;-72
2021/07/11 05:02:00;;;;;;;10.07;7.40;;;;;;;20.79;52.32;99423.44;5031411;28;20029;-72
2021/07/11 05:04:26;;;;;;;14.80;7.60;;;;;;;20.78;52.87;99416.13;5029392;28;20087;-71
2021/07/11 05:06:51;;;;;;;11.65;7.85;;;;;;;20.78;53.07;99416.13;5029034;28;20041;-72
2021/07/11 05:09:16;;;;;;;12.73;6.68;;;;;;;20.83;53.09;99415.75;5023800;28;20077;-71
2021/07/11 05:11:42;;;;;;;12.82;7.22;;;;;;;20.85;52.56;99416.16;5025738;28;20045;-70
2021/07/11 05:14:07;;;;;;;14.07;7.13;;;;;;;21.03;52.45;99406.81;5013159;28;20548;-71
2021/07/11 05:16:33;;;;;;;16.55;7.88;;;;;;;21.09;51.95;99407.19;5026265;28;20109;-71
2021/07/11 05:18:59;;;;;;;18.08;7.38;;;;;;;21.27;51.10;99407.16;4999042;28;20040;-70
2021/07/11 05:21:25;;;;;;;11.38;6.80;;;;;;;21.23;50.76;99403.50;5029434;28;20534;-70
2021/07/11 05:23:50;;;;;;;8.93;6.55;;;;;;;21.30;50.89;99406.34;5030026;28;20108;-71
2021/07/11 05:26:16;;;;;;;16.02;8.30;;;;;;;21.38;51.89;99409.97;5009473;28;20096;-71
2021/07/11 05:28:44;;;;;;;11.32;7.22;;;;;;;21.42;50.95;99413.63;5012803;28;20026;-71
2021/07/11 05:31:11;;;;;;;8.90;6.40;;;;;;;21.58;50.40;99408.28;5013197;28;20036;-70
2021/07/11 05:33:37;;;;;;;15.13;7.45;;;;;;;21.59;50.99;99403.38;5013137;28;20450;-70
2021/07/11 05:36:02;;;;;;;13.07;6.65;;;;;;;21.76;49.39;99404.56;5007804;28;20045;-70
2021/07/11 05:38:28;;;;;;;16.95;6.43;;;;;;;21.92;49.47;99395.56;5030642;28;20025;-72
2021/07/11 05:40:53;;;;;;;15.30;6.57;;;;;;;22.00;49.36;99402.00;5030832;28;20401;-70
2021/07/11 05:43:19;;;;;;;18.13;7.28;;;;;;;22.12;49.17;99404.38;5030793;28;20060;-70
2021/07/11 05:45:45;;;;;;;9.68;7.18;;;;;;;22.20;49.01;99401.50;5020897;28;20037;-70
2021/07/11 05:48:10;;;;;;;11.73;7.18;;;;;;;22.34;48.66;99412.00;5030600;28;20015;-71
2021/07/11 05:50:36;;;;;;;15.50;6.53;;;;;;;22.52;47.46;99404.16;5012946;28;20049;-70
2021/07/11 05:53:02;;;;;;;14.75;7.22;;;;;;;22.56;47.62;99404.94;5029299;28;20021;-70
2021/07/11 05:55:27;;;;;;;10.93;5.90;;;;;;;22.72;46.55;99400.75;5007660;28;20083;-71
2021/07/11 05:57:54;;;;;;;12.63;7.07;;;;;;;22.73;48.11;99408.06;5030283;28;20038;-71
2021/07/11 06:00:20;;;;;;;7.55;6.30;;;;;;;22.88;47.11;99405.09;5012716;28;20030;-70
2021/07/11 06:02:46;;;;;;;10.45;6.82;;;;;;;22.87;47.30;99401.44;5025923;28;20042;-71
2021/07/11 06:05:11;;;;;;;9.55;6.32;;;;;;;23.00;46.20;99401.69;5030372;28;20523;-70
2021/07/11 06:07:37;;;;;;;7.05;6.32;;;;;;;23.08;46.36;99403.25;5030769;28;20176;-70
2021/07/11 06:10:07;;;;;;;12.65;6.85;;;;;;;23.21;46.16;99399.88;5030319;28;20037;-70
2021/07/11 06:12:33;;;;;;;24.80;6.75;;;;;;;23.36;45.81;99401.34;5011376;28;20041;-71
2021/07/11 06:14:59;;;;;;;10.57;6.82;;;;;;;23.38;46.00;99401.75;5012339;28;20411;-71
2021/07/11 06:17:24;;;;;;;6.45;5.82;;;;;;;23.42;45.75;99402.53;5030503;28;20018;-70
2021/07/11 06:19:50;;;;;;;8.00;6.70;;;;;;;23.49;45.49;99395.94;5012555;28;20075;-71
2021/07/11 06:22:16;;;;;;;25.13;7.35;;;;;;;23.62;45.17;99399.03;5016666;28;20075;-70
2021/07/11 06:24:41;;;;;;;8.82;5.75;;;;;;;23.72;44.92;99407.88;5030103;28;20056;-71
2021/07/11 06:27:06;;;;;;;7.65;6.32;;;;;;;23.78;45.56;99406.19;5012526;28;20037;-71
2021/07/11 06:29:32;;;;;;;6.90;5.50;;;;;;;23.88;44.81;99393.78;5029392;28;20041;-71
2021/07/11 06:31:58;;;;;;;15.13;6.70;;;;;;;23.97;44.19;99405.50;5026339;28;20116;-71
2021/07/11 06:34:23;;;;;;;10.73;5.90;;;;;;;24.18;44.46;99399.94;5012276;28;20040;-71
2021/07/11 06:36:48;;;;;;;10.90;5.72;;;;;;;24.36;42.62;99402.53;5030298;28;20550;-71
2021/07/11 06:39:14;;;;;;;11.77;6.22;;;;;;;24.45;42.26;99399.94;5030842;28;20577;-71
2021/07/11 06:41:39;;;;;;;8.57;5.43;;;;;;;24.59;41.28;99395.22;5031343;28;20045;-72
2021/07/11 06:44:05;;;;;;;7.95;5.57;;;;;;;24.64;41.50;99397.63;5034092;28;20516;-70
2021/07/11 06:46:31;;;;;;;8.70;6.10;;;;;;;24.79;41.58;99392.47;5034257;28;20478;-71
2021/07/11 06:48:56;;;;;;;8.88;5.75;;;;;;;24.82;41.10;99385.91;5015942;28;20030;-70
2021/07/11 06:51:22;;;;;;;9.95;6.65;;;;;;;25.09;40.97;99385.81;5033962;28;20454;-70
2021/07/11 06:53:47;;;;;;;9.98;6.45;;;;;;;25.14;40.79;99381.63;5016038;28;20478;-71
2021/07/11 06:56:13;;;;;;;8.20;5.60;;;;;;;25.26;40.25;99380.19;5033827;28;20402;-70
2021/07/11 06:58:38;;;;;;;10.02;5.90;;;;;;;25.20;41.16;99376.22;5026909;28;20041;-70
2021/07/11 07:01:03;;;;;;;13.95;6.35;;;;;;;25.44;39.52;99381.88;5033833;28;20026;-70
2021/07/11 07:03:29;;;;;;;8.65;5.35;;;;;;;25.40;40.28;99384.00;5033755;28;20033;-71
2021/07/11 07:05:55;;;;;;;9.48;6.10;;;;;;;25.51;40.38;99385.44;5032853;28;20112;-72
2021/07/11 07:08:23;;;;;;;9.10;6.43;;;;;;;25.52;39.88;99380.53;5014436;28;20038;-71
2021/07/11 07:10:49;;;;;;;9.30;5.53;;;;;;;25.52;40.50;99380.53;5015831;28;20087;-70
2021/07/11 07:13:14;;;;;;;12.45;6.18;;;;;;;25.71;40.64;99380.97;5016005;28;20434;-70
2021/07/11 07:15:40;;;;;;;14.07;6.07;;;;;;;25.82;40.46;99380.72;5013100;28;20033;-72
2021/07/11 07:18:07;;;;;;;7.78;5.95;;;;;;;25.99;39.44;99378.72;5025439;28;20025;-70
2021/07/11 07:20:32;;;;;;;9.65;6.05;;;;;;;26.02;39.76;99372.91;5033135;28;20033;-70
2021/07/11 07:22:58;;;;;;;18.27;5.90;;;;;;;26.16;39.44;99370.97;5033504;28;20419;-70
2021/07/11 07:25:23;;;;;;;11.88;6.10;;;;;;;26.30;38.73;99369.84;5024521;28;20037;-72
2021/07/11 07:27:49;;;;;;;11.85;5.65;;;;;;;26.38;39.71;99381.97;5032690;28;20481;-71
2021/07/11 07:30:15;;;;;;;8.73;5.32;;;;;;;26.45;39.90;99376.84;5033269;28;20457;-73
2021/07/11 07:32:42;;;;;;;10.35;7.22;;;;;;;26.77;37.90;99374.44;5033425;28;20033;-71
2021/07/11 07:35:08;;;;;;;8.02;6.20;;;;;;;26.80;38.14;99372.72;5010055;28;20043;-71
2021/07/11 07:37:33;;;;;;;9.23;6.38;;;;;;;26.86;38.04;99382.38;5015177;28;20025;-72
2021/07/11 07:40:01;;;;;;;8.82;6.70;;;;;;;26.93;39.16;99376.50;5033039;28;20046;-72
2021/07/11 07:42:26;;;;;;;10.38;6.22;;;;;;;27.00;38.00;99376.28;5014149;28;20041;-71
2021/07/11 07:44:53;;;;;;;11.75;5.90;;;;;;;27.12;37.87;99377.63;5024229;28;20052;-71
2021/07/11 07:47:18;;;;;;;10.05;5.65;;;;;;;27.16;38.20;99372.59;5033150;28;20467;-71
2021/07/11 07:49:44;;;;;;;11.95;6.15;;;;;;;27.22;38.72;99369.97;5031563;28;20053;-72
2021/07/11 07:52:09;;;;;;;15.43;6.22;;;;;;;27.33;38.29;99373.34;5008256;28;20034;-70
2021/07/11 07:54:35;;;;;;;9.55;6.78;;;;;;;27.45;37.90;99366.06;5030337;28;20026;-71
2021/07/11 07:57:00;;;;;;;17.48;7.05;;;;;;;27.41;38.37;99376.03;5033008;28;20032;-70
2021/07/11 07:59:26;;;;;;;7.72;6.85;;;;;;;27.50;38.25;99373.28;5032674;28;20526;-68
2021/07/11 08:01:51;;;;;;;9.13;6.40;;;;;;;27.69;36.59;99374.41;5028476;28;20068;-71
2021/07/11 08:04:20;;;;;;;16.75;6.80;;;;;;;27.72;37.29;99373.50;5032538;28;20017;-72
2021/07/11 08:06:49;;;;;;;20.55;7.40;;;;;;;27.79;36.57;99363.88;5032228;28;20034;-70
2021/07/11 08:09:16;;;;;;;10.00;7.47;;;;;;;27.94;35.95;99374.91;5032411;28;20060;-72
2021/07/11 08:11:42;;;;;;;7.22;5.97;;;;;;;28.03;34.85;99372.16;5030236;28;20571;-72
2021/07/11 08:14:08;;;;;;;70.53;47.17;;;;;;;28.09;35.52;99360.91;5014559;28;20507;-70
2021/07/11 08:16:33;;;;;;;20.30;12.55;;;;;;;28.08;35.40;99373.69;5032623;28;20029;-71
2021/07/11 08:18:59;;;;;;;16.67;8.98;;;;;;;28.12;35.06;99366.56;5012268;28;20480;-71
2021/07/11 08:21:24;;;;;;;23.40;6.70;;;;;;;28.20;35.06;99367.16;5024625;28;20021;-71
2021/07/11 08:23:50;;;;;;;19.13;8.10;;;;;;;28.23;35.00;99360.47;5010895;28;20029;-72
2021/07/11 08:26:15;;;;;;;20.10;9.25;;;;;;;28.46;35.26;99355.63;5014519;28;20196;-73
2021/07/11 08:28:40;;;;;;;10.50;5.47;;;;;;;28.64;33.38;99351.34;5027204;28;20033;-74
2021/07/11 08:31:08;;;;;;;6.75;5.30;;;;;;;28.54;33.83;99347.56;5032507;28;20034;-72
2021/07/11 08:33:34;;;;;;;8.15;5.85;;;;;;;28.64;35.27;99345.59;5016698;28;20026;-71
2021/07/11 08:36:00;;;;;;;9.57;5.18;;;;;;;28.86;34.19;99339.94;5032007;28;20524;-72
2021/07/11 08:38:25;;;;;;;11.23;5.85;;;;;;;28.83;33.91;99338.78;5029201;28;20485;-73
2021/07/11 08:40:51;;;;;;;11.77;5.38;;;;;;;28.92;33.92;99329.44;5031630;28;20091;-72
2021/07/11 08:43:18;;;;;;;9.25;5.85;;;;;;;29.01;33.73;99328.69;5031946;28;20156;-72
2021/07/11 08:45:44;;;;;;;1999.90;325.00;;;;;;;29.02;36.25;99332.41;5013736;28;20406;-72
2021/07/11 08:48:11;;;;;;;225.57;82.68;;;;;;;29.25;35.13;99319.63;5012928;28;20101;-72
2021/07/11 08:50:37;;;;;;;87.40;26.67;;;;;;;29.46;36.19;99325.88;5031707;28;20121;-72
2021/07/11 08:53:03;;;;;;;113.55;55.30;;;;;;;29.23;36.45;99325.88;5013700;28;20120;-69
2021/07/11 08:55:28;;;;;;;58.75;35.80;;;;;;;29.15;36.77;99324.50;5027812;28;20033;-69
2021/07/11 08:57:59;;;;;;;65.82;46.33;;;;;;;29.13;35.90;99324.97;5030238;28;20033;-71
2021/07/11 09:00:29;;;;;;;20.23;12.75;;;;;;;29.29;35.73;99323.19;5030942;28;20021;-71
2021/07/11 09:02:55;;;;;;;26.40;17.83;;;;;;;29.21;34.70;99307.44;5013582;28;20478;-71
2021/07/11 09:05:33;;;;;;;21.65;12.10;;;;;;;29.41;35.12;99305.03;5029257;28;20060;-69
2021/07/11 09:08:25;;;;;;;18.92;13.57;;;;;;;29.47;34.84;99311.00;5031187;28;20502;-70
2021/07/11 09:10:53;;;;;;;17.08;8.73;;;;;;;29.44;35.13;99306.19;5011057;28;20040;-70
2021/07/11 09:13:21;;;;;;;15.10;8.15;;;;;;;29.39;34.11;99298.94;5012768;28;20116;-73
2021/07/11 09:15:51;;;;;;;10.60;6.80;;;;;;;29.50;34.43;99291.97;5027734;28;20037;-70
2021/07/11 09:18:29;;;;;;;15.18;9.10;;;;;;;29.52;34.56;99296.00;5013814;28;20125;-69
2021/07/11 09:21:00;;;;;;;9.93;7.05;;;;;;;29.59;33.88;99285.47;5019357;28;20130;-70
2021/07/11 09:23:27;;;;;;;10.90;8.20;;;;;;;29.77;33.79;99288.44;5026940;28;20029;-70
2021/07/11 09:26:00;;;;;;;8.05;6.30;;;;;;;29.76;33.22;99275.31;5030667;28;20044;-71
2021/07/11 09:28:28;;;;;;;14.48;7.88;;;;;;;29.92;33.35;99287.84;5030806;28;20037;-70
2021/07/11 09:31:02;;;;;;;10.70;7.20;;;;;;;29.84;33.73;99276.63;5013018;28;20025;-68
2021/07/11 09:33:27;;;;;;;20.88;7.43;;;;;;;30.01;33.44;99282.13;5026056;28;20026;-72
2021/07/11 09:36:06;;;;;;;19.88;6.75;;;;;;;29.92;33.35;99276.31;5012930;28;20051;-71
2021/07/11 09:38:32;;;;;;;21.20;7.43;;;;;;;29.92;32.80;99282.91;5030883;28;20443;-71
2021/07/11 09:40:58;;;;;;;12.77;7.97;;;;;;;30.06;33.58;99280.75;5012178;28;20470;-69
2021/07/11 09:43:23;;;;;;;15.63;7.45;;;;;;;30.22;32.43;99271.03;5006698;28;20049;-71
2021/07/11 09:45:49;;;;;;;9.63;7.63;;;;;;;30.37;32.25;99271.22;5025820;28;20059;-71
2021/07/11 09:48:14;;;;;;;10.35;7.50;;;;;;;30.47;32.40;99269.97;5030624;28;20025;-71
2021/07/11 09:50:40;;;;;;;11.02;8.02;;;;;;;30.71;33.17;99274.34;5026716;28;20406;-70
2021/07/11 09:53:06;;;;;;;11.57;7.03;;;;;;;30.74;32.10;99267.59;5030381;28;20558;-71
2021/07/11 09:55:36;;;;;;;10.98;7.72;;;;;;;30.79;32.41;99267.78;5030313;28;20029;-72
2021/07/11 09:58:08;;;;;;;13.93;8.50;;;;;;;30.81;32.15;99270.97;5012577;28;20057;-72
2021/07/11 10:00:42;;;;;;;11.90;7.93;;;;;;;30.84;31.32;99268.44;5012137;28;20069;-72
2021/07/11 10:03:12;;;;;;;13.30;7.60;;;;;;;30.82;31.02;99269.69;5030200;28;20049;-72
2021/07/11 10:05:39;;;;;;;12.20;6.85;;;;;;;30.79;31.37;99267.78;5029973;28;20426;-72
2021/07/11 10:08:04;;;;;;;10.57;7.60;;;;;;;30.80;31.48;99263.59;5030100;28;20045;-71
2021/07/11 10:10:33;;;;;;;8.77;7.28;;;;;;;30.88;31.09;99258.31;5029739;28;20031;-72
2021/07/11 10:13:00;;;;;;;12.70;7.28;;;;;;;31.08;30.72;99257.84;5029485;28;20037;-72
2021/07/11 10:15:28;;;;;;;9.00;7.35;;;;;;;31.13;31.43;99250.59;5012113;28;20056;-72
2021/07/11 10:18:00;;;;;;;10.70;6.70;;;;;;;31.13;31.17;99258.47;5019011;28;20041;-72
2021/07/11 10:20:34;;;;;;;11.77;7.05;;;;;;;31.18;30.52;99255.72;5029859;28;20025;-72
2021/07/11 10:23:00;;;;;;;20.92;7.40;;;;;;;31.32;30.25;99254.28;5019880;28;20103;-70
2021/07/11 10:25:30;;;;;;;14.40;6.90;;;;;;;31.42;29.14;99251.38;5029856;28;20060;-71
2021/07/11 10:28:07;;;;;;;13.90;7.05;;;;;;;31.53;29.56;99242.97;5018655;28;20413;-71
2021/07/11 10:30:34;;;;;;;11.52;6.85;;;;;;;31.74;29.61;99246.13;5029912;28;20029;-72
2021/07/11 10:33:16;;;;;;;10.48;7.13;;;;;;;31.84;28.75;99244.03;5012214;28;20529;-72
2021/07/11 10:35:49;;;;;;;16.88;7.65;;;;;;;31.75;29.57;99236.16;5012059;28;20411;-72
2021/07/11 10:38:32;;;;;;;13.35;6.63;;;;;;;31.81;29.27;99240.03;5028239;28;20083;-72
2021/07/11 10:41:27;;;;;;;22.35;8.27;;;;;;;31.86;29.25;99238.56;5027321;28;20460;-72
2021/07/11 10:44:09;;;;;;;12.93;7.50;;;;;;;31.67;29.82;99229.94;5029418;28;20060;-72
2021/07/11 10:46:35;;;;;;;11.77;7.03;;;;;;;31.85;28.66;99228.28;5021747;28;20457;-73
2021/07/11 10:49:20;;;;;;;13.75;7.50;;;;;;;31.75;28.08;99230.38;5012115;28;20026;-73
2021/07/11 10:51:51;;;;;;;9.70;6.40;;;;;;;31.76;27.68;99221.25;5018406;28;20033;-73
2021/07/11 10:54:22;;;;;;;10.60;6.93;;;;;;;32.01;27.85;99213.44;5023361;28;20030;-73
2021/07/11 10:56:48;;;;;;;9.90;6.72;;;;;;;32.33;29.33;99215.97;5029867;28;20033;-72
2021/07/11 10:59:31;;;;;;;8.60;6.80;;;;;;;32.40;28.48;99206.13;5029799;28;20490;-73
2021/07/11 11:01:57;;;;;;;8.63;6.03;;;;;;;32.40;28.11;99204.06;5009700;28;20486;-73
2021/07/11 11:04:23;;;;;;;10.10;7.18;;;;;;;32.19;27.69;99203.03;5027893;28;20049;-72
2021/07/11 11:06:49;;;;;;;12.55;6.47;;;;;;;32.19;27.75;99200.13;5026560;28;20030;-75
2021/07/11 11:09:40;;;;;;;10.32;6.55;;;;;;;32.32;26.62;99200.69;5011729;28;20079;-73
2021/07/11 11:12:24;;;;;;;15.80;6.93;;;;;;;32.45;27.77;99193.88;5011800;28;20033;-74
2021/07/11 11:15:00;;;;;;;8.90;6.13;;;;;;;32.14;26.73;99195.03;5011327;28;20128;-68
2021/07/11 11:17:36;;;;;;;10.32;6.45;;;;;;;32.39;27.33;99196.63;5029577;28;20055;-74
2021/07/11 11:20:22;;;;;;;9.45;6.68;;;;;;;32.41;24.43;99182.50;5029741;28;20523;-72
2021/07/11 11:23:11;;;;;;;9.82;6.35;;;;;;;32.48;24.86;99182.09;5016817;28;20056;-70
2021/07/11 11:25:38;;;;;;;10.45;6.43;;;;;;;32.31;26.48;99178.84;5022562;28;20064;-72
2021/07/11 11:28:04;;;;;;;10.57;6.82;;;;;;;32.16;26.96;99180.88;5032947;28;20038;-71
2021/07/11 11:30:29;;;;;;;9.80;6.35;;;;;;;32.15;27.69;99177.19;5032992;28;20100;-71